Time;durP1;ratioP1;P1;durP2;ratioP2;P2;SDS_P1;SDS_P2;PMS_P1;PMS_P2;Temp;Humidity;BMP_temperature;BMP_pressure;BME280_temperature;BME280_humidity;BME280_pressure;Samples;Min_cycle;Max_cycle;Signal;HPM_P1;HPM_P2
2021/10/09 00:01:01;;;;;;;26.27;11.83;;;;;;;2.20;63.01;102047.63;1730408;82;21555;-69
2021/10/09 00:03:27;;;;;;;20.75;10.88;;;;;;;2.17;63.69;102044.95;1743434;82;21104;-69
2021/10/09 00:05:54;;;;;;;20.25;10.75;;;;;;;2.13;63.32;102041.80;1735143;82;21097;-70
2021/10/09 00:08:20;;;;;;;23.83;11.55;;;;;;;2.09;64.11;102045.14;1748169;82;21299;-70
2021/10/09 00:10:47;;;;;;;20.90;10.03;;;;;;;2.05;64.05;102044.19;1747836;82;21602;-71
2021/10/09 00:13:13;;;;;;;29.12;12.18;;;;;;;2.00;63.79;102038.38;1719481;82;21552;-69
2021/10/09 00:15:40;;;;;;;25.17;11.97;;;;;;;1.95;64.85;102036.08;1722364;82;21361;-72
2021/10/09 00:18:06;;;;;;;25.37;13.50;;;;;;;1.92;64.49;102038.59;1748343;82;21077;-71
2021/10/09 00:20:34;;;;;;;21.65;11.10;;;;;;;1.88;64.71;102034.59;1748000;82;21161;-71
2021/10/09 00:23:00;;;;;;;24.35;12.25;;;;;;;1.85;64.67;102031.91;1748112;82;21532;-71
2021/10/09 00:25:28;;;;;;;29.80;12.40;;;;;;;1.82;64.64;102034.44;1747728;82;21082;-71
2021/10/09 00:27:55;;;;;;;22.65;11.45;;;;;;;1.80;65.14;102033.50;1747750;82;21097;-70
2021/10/09 00:30:22;;;;;;;25.65;11.78;;;;;;;1.77;65.13;102036.02;1747897;82;21567;-71
2021/10/09 00:32:48;;;;;;;24.12;11.55;;;;;;;1.75;65.28;102034.19;1720095;82;21123;-70
2021/10/09 00:35:15;;;;;;;21.35;11.45;;;;;;;1.73;65.52;102031.56;1736567;81;21054;-69
2021/10/09 00:37:43;;;;;;;23.52;12.07;;;;;;;1.72;65.40;102031.52;1733946;82;21097;-70
2021/10/09 00:40:11;;;;;;;30.88;12.10;;;;;;;1.71;66.50;102032.36;1733585;82;21054;-70
2021/10/09 00:42:37;;;;;;;30.60;13.70;;;;;;;1.70;66.34;102031.88;1733969;82;21486;-70
2021/10/09 00:45:06;;;;;;;24.92;13.25;;;;;;;1.66;66.11;102030.50;1733734;82;21117;-70
2021/10/09 00:47:34;;;;;;;24.25;12.23;;;;;;;1.65;66.70;102030.44;1733749;82;21045;-70
2021/10/09 00:50:00;;;;;;;24.60;13.75;;;;;;;1.64;66.10;102033.89;1733776;82;21531;-70
2021/10/09 00:52:26;;;;;;;27.67;13.38;;;;;;;1.60;66.93;102026.41;1733728;82;21513;-70
2021/10/09 00:54:53;;;;;;;28.47;14.43;;;;;;;1.60;66.93;102026.41;1733766;82;21735;-71
2021/10/09 00:57:22;;;;;;;30.70;14.35;;;;;;;1.60;66.58;102026.84;1733893;82;21141;-70
2021/10/09 00:59:49;;;;;;;29.65;13.38;;;;;;;1.58;67.21;102015.52;1713504;82;21042;-72
2021/10/09 01:02:16;;;;;;;30.92;14.28;;;;;;;1.58;66.79;102016.81;1733788;82;21548;-71
2021/10/09 01:04:43;;;;;;;24.60;12.73;;;;;;;1.60;66.83;102013.84;1729233;82;21097;-69
2021/10/09 01:07:10;;;;;;;27.75;13.65;;;;;;;1.61;67.14;102015.59;1704608;84;21060;-70
2021/10/09 01:09:37;;;;;;;27.77;14.18;;;;;;;1.61;66.70;102014.30;1704752;84;21112;-70
2021/10/09 01:12:06;;;;;;;24.72;12.90;;;;;;;1.58;67.28;102018.11;1706201;82;21558;-70
2021/10/09 01:14:33;;;;;;;27.20;12.98;;;;;;;1.57;67.14;102014.64;1733719;82;21640;-70
2021/10/09 01:17:00;;;;;;;24.72;13.50;;;;;;;1.57;67.14;102014.64;1733990;82;21543;-71
2021/10/09 01:19:26;;;;;;;24.10;13.40;;;;;;;1.56;67.78;102011.98;1733728;82;21109;-70
2021/10/09 01:21:55;;;;;;;27.42;12.20;;;;;;;1.52;67.27;102007.53;1733861;82;21149;-72
2021/10/09 01:24:23;;;;;;;25.05;11.63;;;;;;;1.51;67.60;102009.67;1733729;81;21097;-70
2021/10/09 01:26:51;;;;;;;24.30;11.97;;;;;;;1.45;68.11;102007.37;1733914;82;21002;-72
2021/10/09 01:29:19;;;;;;;25.97;12.75;;;;;;;1.43;67.70;102011.62;1733330;82;21101;-72
2021/10/09 01:31:47;;;;;;;22.95;11.15;;;;;;;1.39;67.85;102007.17;1733753;82;21485;-71
2021/10/09 01:34:23;;;;;;;28.60;12.95;;;;;;;1.39;67.85;102007.17;1735499;81;21146;-70
2021/10/09 01:36:52;;;;;;;23.40;11.90;;;;;;;1.36;68.33;102007.09;1741707;81;21078;-70
2021/10/09 01:39:19;;;;;;;25.45;11.63;;;;;;;1.33;68.86;102016.05;1741915;82;21069;-70
2021/10/09 01:41:49;;;;;;;32.53;12.35;;;;;;;1.32;68.27;102010.41;1741488;82;21584;-71
2021/10/09 01:44:16;;;;;;;28.95;11.73;;;;;;;1.30;68.97;102001.70;1741884;82;21033;-71
2021/10/09 01:46:44;;;;;;;26.52;11.90;;;;;;;1.30;68.77;102004.29;1741863;82;21130;-72
2021/10/09 01:49:11;;;;;;;29.65;12.37;;;;;;;1.30;69.74;102008.19;1742047;82;21007;-69
2021/10/09 01:51:37;;;;;;;25.85;11.68;;;;;;;1.26;69.12;102007.62;1741927;82;21085;-68
2021/10/09 01:54:04;;;;;;;26.93;11.97;;;;;;;1.26;69.12;102007.62;1742095;82;21069;-67
2021/10/09 01:56:31;;;;;;;28.55;12.88;;;;;;;1.25;69.41;102010.64;1741824;82;21050;-68
2021/10/09 01:58:57;;;;;;;20.60;11.57;;;;;;;1.23;69.15;102007.53;1742020;82;21269;-68
2021/10/09 02:01:28;;;;;;;23.57;12.25;;;;;;;1.20;69.27;102002.26;1740963;82;21033;-68
2021/10/09 02:03:55;;;;;;;25.72;12.07;;;;;;;1.20;70.09;102007.45;1742231;82;21429;-68
2021/10/09 02:06:24;;;;;;;24.20;12.00;;;;;;;1.18;70.15;102005.22;1673672;85;21045;-68
2021/10/09 02:08:50;;;;;;;23.18;11.50;;;;;;;1.18;70.15;102005.22;1694823;84;21006;-67
2021/10/09 02:11:20;;;;;;;24.72;11.00;;;;;;;1.14;69.78;101999.03;1696814;84;21349;-70
2021/10/09 02:14:17;;;;;;;25.55;12.35;;;;;;;1.10;70.30;102001.48;1694298;83;21141;-70
2021/10/09 02:27:19;;;;;;;29.35;11.83;;;;;;;0.98;70.64;102004.57;1694000;84;21576;-69
2021/10/09 02:29:48;;;;;;;29.00;12.63;;;;;;;0.98;70.64;102004.57;1694042;84;21080;-69
2021/10/09 02:32:14;;;;;;;20.97;10.65;;;;;;;0.97;70.94;102005.00;1693762;84;21023;-69
2021/10/09 02:34:41;;;;;;;23.40;12.13;;;;;;;0.96;71.17;102001.92;1698656;83;21602;-69
2021/10/09 02:37:08;;;;;;;26.48;11.65;;;;;;;0.93;71.01;102003.13;1714510;83;21140;-68
2021/10/09 02:39:37;;;;;;;20.85;10.72;;;;;;;0.92;71.74;102001.38;1714517;83;21107;-69
2021/10/09 02:42:03;;;;;;;22.17;12.10;;;;;;;0.90;71.20;102000.45;1715008;83;21083;-69
2021/10/09 02:44:30;;;;;;;27.50;11.38;;;;;;;0.89;71.54;102000.38;1714809;83;21087;-68
2021/10/09 02:46:57;;;;;;;22.55;11.18;;;;;;;0.86;71.70;102000.30;1715063;83;21173;-69
2021/10/09 02:49:24;;;;;;;21.35;11.22;;;;;;;0.81;72.20;102002.74;1714870;83;21149;-69
2021/10/09 02:51:51;;;;;;;23.90;11.30;;;;;;;0.81;72.20;102002.74;1714832;83;21551;-68
2021/10/09 02:54:18;;;;;;;21.15;11.38;;;;;;;0.81;71.93;102006.63;1714858;83;21134;-71
2021/10/09 02:56:44;;;;;;;23.20;11.95;;;;;;;0.80;72.34;102015.22;1715186;83;21080;-68
2021/10/09 02:59:12;;;;;;;22.60;12.45;;;;;;;0.75;72.46;102009.89;1715369;83;21086;-69
2021/10/09 03:01:38;;;;;;;22.27;11.00;;;;;;;0.74;72.27;102012.03;1714806;83;21844;-69
2021/10/09 03:04:05;;;;;;;23.20;10.70;;;;;;;0.71;72.55;102011.03;1715068;83;21677;-70
2021/10/09 03:06:32;;;;;;;22.22;11.20;;;;;;;0.68;72.56;102013.53;1714655;83;21384;-68
2021/10/09 03:09:00;;;;;;;24.95;11.55;;;;;;;0.67;72.93;102016.94;1714950;83;21103;-71
2021/10/09 03:11:26;;;;;;;25.90;11.43;;;;;;;0.64;73.16;102020.31;1715060;83;21522;-69
2021/10/09 03:13:53;;;;;;;26.70;11.43;;;;;;;0.62;72.89;102016.39;1715167;83;21123;-69
2021/10/09 03:16:20;;;;;;;21.27;10.15;;;;;;;0.61;73.17;102013.31;1714666;83;21079;-71
2021/10/09 03:18:47;;;;;;;25.43;11.95;;;;;;;0.58;73.12;102016.23;1719986;83;21020;-70
2021/10/09 03:21:13;;;;;;;25.20;11.73;;;;;;;0.54;73.32;102013.94;1690614;84;21043;-70
2021/10/09 03:23:40;;;;;;;23.22;11.20;;;;;;;0.54;73.85;102016.95;1720049;83;21059;-70
2021/10/09 03:26:06;;;;;;;21.33;11.18;;;;;;;0.51;73.63;102016.86;1690766;84;21137;-68
2021/10/09 03:28:33;;;;;;;24.65;11.22;;;;;;;0.49;74.25;102015.50;1719724;83;21064;-68
2021/10/09 03:30:59;;;;;;;25.05;11.75;;;;;;;0.46;73.96;102014.11;1664840;84;21138;-70
2021/10/09 03:33:26;;;;;;;26.33;11.48;;;;;;;0.45;73.86;102013.63;1719546;83;21071;-70
2021/10/09 03:35:53;;;;;;;22.58;11.28;;;;;;;0.43;74.29;102015.28;1678461;84;21093;-69
2021/10/09 03:38:20;;;;;;;24.57;11.63;;;;;;;0.42;73.93;102018.71;1693757;84;21179;-70
2021/10/09 03:40:51;;;;;;;22.37;11.18;;;;;;;0.41;74.37;102018.23;1693672;84;21759;-69
2021/10/09 03:43:21;;;;;;;26.62;11.43;;;;;;;0.38;74.80;102014.24;1693596;84;21107;-68
2021/10/09 03:46:25;;;;;;;24.77;11.78;;;;;;;0.36;74.55;102014.18;1693736;83;21518;-70
2021/10/09 03:48:29;;;;;;;18.82;10.00;;;;;;;0.34;75.28;102010.65;1683500;84;21112;-69
2021/10/09 03:53:35;;;;;;;20.17;11.08;;;;;;;0.30;75.18;102015.67;1686993;84;21165;-79
2021/10/09 03:56:03;;;;;;;21.93;10.18;;;;;;;0.27;75.75;102019.05;1694305;84;21069;-80
2021/10/09 03:58:31;;;;;;;24.50;11.30;;;;;;;0.24;75.74;102027.14;1685890;84;21065;-78
2021/10/09 04:00:59;;;;;;;16.77;8.65;;;;;;;0.24;75.64;102029.73;1681922;84;21096;-78
2021/10/09 04:03:27;;;;;;;23.42;11.00;;;;;;;0.23;76.11;102034.42;1665963;86;21162;-77
2021/10/09 04:05:55;;;;;;;28.95;11.35;;;;;;;0.23;75.36;102032.74;1676117;84;21077;-81
2021/10/09 04:08:22;;;;;;;17.00;10.55;;;;;;;0.24;75.71;102034.91;1691060;83;21109;-80
2021/10/09 04:10:50;;;;;;;22.87;11.03;;;;;;;0.24;75.76;102038.80;1682323;84;21038;-81
2021/10/09 04:13:17;;;;;;;16.52;9.70;;;;;;;0.23;75.46;102034.42;1690454;84;21047;-81
2021/10/09 04:15:45;;;;;;;26.50;11.73;;;;;;;0.23;75.77;102035.72;1693821;84;21148;-80
2021/10/09 04:18:12;;;;;;;27.40;12.15;;;;;;;0.22;75.51;102034.84;1681807;84;21309;-79
2021/10/09 04:20:39;;;;;;;21.52;10.93;;;;;;;0.22;75.86;102030.95;1673088;84;21125;-81
2021/10/09 04:23:06;;;;;;;24.55;11.12;;;;;;;0.22;76.14;102038.73;1674586;84;21053;-80
2021/10/09 04:25:33;;;;;;;23.95;10.35;;;;;;;0.22;75.67;102037.44;1683313;84;21144;-81
2021/10/09 04:28:01;;;;;;;32.98;10.20;;;;;;;0.23;76.00;102039.61;1675488;84;21152;-81
2021/10/09 04:30:28;;;;;;;36.10;12.23;;;;;;;0.24;75.70;102046.57;1649052;82;21199;-80
2021/10/09 04:32:55;;;;;;;21.42;11.43;;;;;;;0.24;75.74;102041.39;1675274;83;21090;-80
2021/10/09 04:35:24;;;;;;;21.15;10.28;;;;;;;0.24;76.08;102042.27;1670131;84;21078;-85
2021/10/09 04:37:52;;;;;;;24.10;10.48;;;;;;;0.27;75.46;102051.85;1663919;85;21592;-72
2021/10/09 04:40:19;;;;;;;18.50;10.10;;;;;;;0.29;75.70;102050.20;1678172;85;21163;-80
2021/10/09 04:42:46;;;;;;;21.87;10.43;;;;;;;0.31;75.66;102053.73;1688991;84;21094;-79
2021/10/09 04:45:14;;;;;;;21.93;11.22;;;;;;;0.37;75.41;102051.38;1653284;85;21591;-80
2021/10/09 04:47:42;;;;;;;22.05;10.55;;;;;;;0.41;75.83;102057.11;1670785;85;21080;-79
2021/10/09 04:50:11;;;;;;;23.27;11.00;;;;;;;0.45;75.45;102055.09;1676032;84;21147;-79
2021/10/09 04:52:38;;;;;;;21.75;11.12;;;;;;;0.63;75.60;102055.73;1683859;85;21218;-79
2021/10/09 04:55:08;;;;;;;27.30;10.75;;;;;;;0.92;75.05;102050.67;1682750;85;21162;-79
2021/10/09 04:57:36;;;;;;;17.65;9.73;;;;;;;1.14;72.81;102049.64;1674416;83;21104;-78
2021/10/09 05:00:05;;;;;;;30.65;10.78;;;;;;;1.19;72.40;102051.95;1690142;83;21081;-80
2021/10/09 05:02:32;;;;;;;29.63;12.18;;;;;;;1.19;72.40;102046.77;1692683;84;21031;-85
2021/10/09 05:04:58;;;;;;;21.10;10.90;;;;;;;1.20;71.50;102047.67;1674068;84;21592;-88
2021/10/09 05:07:25;;;;;;;24.67;11.22;;;;;;;1.24;72.47;102050.81;1673713;84;21080;-83
2021/10/09 05:09:52;;;;;;;24.18;11.43;;;;;;;1.29;71.49;102053.16;1684045;84;21145;-87
2021/10/09 05:12:18;;;;;;;20.70;9.65;;;;;;;1.73;70.57;102056.24;1641419;86;21089;-87
2021/10/09 05:14:45;;;;;;;22.73;10.03;;;;;;;2.40;70.21;102048.19;1684016;84;21094;-88
2021/10/09 05:17:13;;;;;;;24.92;10.13;;;;;;;3.20;66.28;102057.13;1660716;85;21146;-82
2021/10/09 05:19:40;;;;;;;23.42;10.23;;;;;;;3.94;62.97;102052.75;1679222;85;21097;-80
2021/10/09 05:22:08;;;;;;;22.70;10.05;;;;;;;4.61;59.89;102044.05;1687114;84;21109;-81
2021/10/09 05:24:35;;;;;;;25.12;10.60;;;;;;;5.25;57.88;102047.31;1655242;85;21069;-83
2021/10/09 05:27:02;;;;;;;20.88;10.05;;;;;;;5.75;53.53;102039.33;1661614;85;21060;-81
2021/10/09 05:29:30;;;;;;;17.42;9.83;;;;;;;6.14;51.90;102042.44;1662445;85;21107;-88
2021/10/09 05:32:05;;;;;;;24.43;10.15;;;;;;;6.55;51.05;102038.09;1654382;86;21065;-86
2021/10/09 05:34:32;;;;;;;18.80;9.63;;;;;;;6.97;50.28;102039.34;1653975;86;21037;-85
2021/10/09 05:36:59;;;;;;;21.52;9.78;;;;;;;7.37;48.16;102039.23;1661681;86;21020;-87
2021/10/09 05:39:26;;;;;;;26.85;10.85;;;;;;;7.72;46.15;102043.80;1644163;85;21639;-87
2021/10/09 05:41:55;;;;;;;31.15;11.18;;;;;;;7.99;45.75;102040.00;1657069;85;21125;-87
2021/10/09 05:44:21;;;;;;;23.40;10.15;;;;;;;8.22;44.35;102034.41;1674329;84;21119;-86
2021/10/09 05:46:48;;;;;;;22.65;10.00;;;;;;;8.51;44.88;102035.40;1702496;84;20997;-85
2021/10/09 05:49:16;;;;;;;23.85;9.68;;;;;;;8.81;43.57;102033.66;1702238;84;21096;-88
2021/10/09 05:52:06;;;;;;;17.82;9.20;;;;;;;9.14;43.59;102033.23;1679834;84;21285;-86
2021/10/09 05:54:33;;;;;;;24.77;10.03;;;;;;;9.44;42.40;102031.88;1696431;84;21180;-86
2021/10/09 05:57:08;;;;;;;22.25;8.78;;;;;;;9.64;40.58;102033.59;1688646;84;21119;-86
2021/10/09 06:00:34;;;;;;;19.75;9.20;;;;;;;9.75;40.93;102032.23;1668676;85;21104;-86
2021/10/09 06:32:30;;;;;;;18.17;8.70;;;;;;;12.53;34.36;102031.13;1663827;86;20965;-89
2021/10/09 06:48:27;;;;;;;21.57;9.68;;;;;;;13.85;31.89;102038.12;1709495;82;21111;-88
2021/10/09 07:01:25;;;;;;;24.35;7.92;;;;;;;15.19;28.87;102038.59;1736414;82;22125;-87
2021/10/09 07:03:53;;;;;;;17.50;7.75;;;;;;;14.98;28.67;102037.83;1734491;82;21751;-88
2021/10/09 07:06:21;;;;;;;19.87;6.72;;;;;;;14.82;29.49;102036.87;1712031;82;21285;-89
2021/10/09 07:08:50;;;;;;;21.23;8.30;;;;;;;15.02;29.44;102035.48;1684869;84;20995;-88
2021/10/09 07:11:35;;;;;;;17.10;7.37;;;;;;;15.29;29.26;102041.41;1701389;83;21046;-84
2021/10/09 07:14:05;;;;;;;14.47;7.03;;;;;;;15.45;28.87;102037.03;1673301;84;21146;-86
2021/10/09 07:16:32;;;;;;;16.85;6.90;;;;;;;15.71;28.45;102035.91;1676736;84;21081;-84
2021/10/09 07:18:58;;;;;;;16.75;6.95;;;;;;;16.03;29.31;102039.39;1670340;86;21033;-85
2021/10/09 07:21:25;;;;;;;19.02;6.70;;;;;;;16.40;27.83;102035.62;1674056;85;20978;-86
2021/10/09 07:23:52;;;;;;;16.50;6.00;;;;;;;16.75;27.06;102034.98;1670257;86;20986;-84
2021/10/09 07:26:19;;;;;;;17.23;5.80;;;;;;;17.14;26.80;102037.28;1674053;85;21141;-88
2021/10/09 07:28:46;;;;;;;16.62;5.53;;;;;;;17.60;25.47;102036.99;1667618;86;21648;-88
2021/10/09 07:31:12;;;;;;;21.65;6.10;;;;;;;17.77;24.61;102034.56;1674347;85;21093;-85
2021/10/09 07:33:39;;;;;;;16.12;6.25;;;;;;;17.68;24.03;102037.56;1670746;86;21091;-87
2021/10/09 07:36:05;;;;;;;15.13;5.78;;;;;;;17.75;24.43;102033.75;1669269;84;21585;-88
2021/10/09 07:38:32;;;;;;;20.62;6.28;;;;;;;17.90;25.77;102035.03;1682771;85;21155;-86
2021/10/09 07:40:59;;;;;;;16.15;6.05;;;;;;;18.19;23.56;102033.90;1681392;85;21053;-87
2021/10/09 07:43:25;;;;;;;26.75;6.42;;;;;;;18.39;24.31;102030.45;1686249;84;21095;-87
2021/10/09 07:45:55;;;;;;;24.15;7.80;;;;;;;18.63;23.59;102033.06;1701983;84;21546;-91
2021/10/09 07:48:21;;;;;;;19.20;6.00;;;;;;;18.82;22.81;102030.57;1670653;86;21046;-88
2021/10/09 07:50:48;;;;;;;21.77;5.70;;;;;;;18.99;23.11;102030.72;1702629;81;21508;-87
2021/10/09 07:53:15;;;;;;;13.22;5.25;;;;;;;19.22;22.98;102024.88;1670133;86;21040;-86
2021/10/09 07:55:43;;;;;;;14.00;4.75;;;;;;;19.57;22.65;102029.13;1700938;84;21078;-87
2021/10/09 07:58:10;;;;;;;14.03;5.00;;;;;;;19.93;22.31;102025.77;1700852;84;21043;-88
2021/10/09 08:00:36;;;;;;;16.52;4.62;;;;;;;20.19;21.07;102022.72;1700913;83;21542;-87
2021/10/09 08:03:04;;;;;;;20.70;5.25;;;;;;;20.17;21.01;102019.25;1669673;86;21164;-84
2021/10/09 08:05:34;;;;;;;15.68;4.72;;;;;;;19.89;20.56;102021.88;1686314;84;21594;-86
2021/10/09 08:08:03;;;;;;;16.62;5.62;;;;;;;19.57;20.58;102024.64;1672121;85;21082;-84
2021/10/09 08:10:30;;;;;;;10.08;4.60;;;;;;;19.29;20.32;102023.19;1660230;85;21536;-86
2021/10/09 08:12:57;;;;;;;18.80;4.90;;;;;;;19.14;19.99;102016.30;1660396;86;21088;-86
2021/10/09 08:15:23;;;;;;;14.50;4.35;;;;;;;19.33;20.65;102024.41;1660601;86;21521;-86
2021/10/09 08:17:49;;;;;;;17.60;4.60;;;;;;;19.01;20.01;102015.98;1660386;85;21052;-86
2021/10/09 08:20:17;;;;;;;16.10;4.83;;;;;;;18.99;20.26;102017.37;1653558;86;21083;-85
2021/10/09 08:22:57;;;;;;;16.97;6.15;;;;;;;19.11;20.46;102019.98;1671736;85;21076;-86
2021/10/09 08:25:38;;;;;;;15.38;4.20;;;;;;;19.24;20.34;102016.33;1679141;85;21648;-84
2021/10/09 08:38:51;;;;;;;12.85;3.20;;;;;;;18.82;18.31;102015.89;1672410;83;21058;-85
2021/10/09 08:41:34;;;;;;;8.53;3.22;;;;;;;18.47;18.64;102002.61;1649097;86;21585;-87
2021/10/09 08:44:23;;;;;;;7.92;2.67;;;;;;;18.20;19.47;102004.98;1653235;86;21101;-88
2021/10/09 08:46:45;;;;;;;13.83;3.37;;;;;;;18.23;20.23;102002.66;1655703;86;21059;-85
2021/10/09 08:49:11;;;;;;;14.98;3.12;;;;;;;18.35;19.16;102006.64;1652685;86;21543;-87
2021/10/09 08:51:39;;;;;;;13.28;3.20;;;;;;;18.44;18.50;102006.27;1682437;85;21174;-86
2021/10/09 08:54:10;;;;;;;16.27;3.52;;;;;;;18.50;18.72;102008.70;1680213;84;21122;-85
2021/10/09 08:56:44;;;;;;;12.03;2.80;;;;;;;18.23;18.37;101998.19;1692565;85;20994;-84
2021/10/09 08:59:25;;;;;;;20.62;3.27;;;;;;;18.17;18.60;101994.89;1693164;84;21022;-84
2021/10/09 09:02:31;;;;;;;10.08;2.80;;;;;;;18.16;18.22;101991.83;1693352;83;20970;-80
2021/10/09 09:07:38;;;;;;;15.72;3.58;;;;;;;18.43;19.49;101993.88;1693455;85;21107;-85
2021/10/09 09:40:03;;;;;;;12.90;2.58;;;;;;;18.44;17.57;101982.27;1685777;85;28269;-85
2021/10/09 09:42:29;;;;;;;6.35;2.90;;;;;;;18.39;18.01;101989.59;1685575;85;21037;-83
2021/10/09 09:45:00;;;;;;;7.08;2.35;;;;;;;18.41;17.87;101983.73;1690619;84;21072;-85
2021/10/09 09:47:37;;;;;;;;;;;;;;;18.55;17.57;101980.50;1692845;84;21142;-85
2021/10/09 09:51:27;;;;;;;8.83;2.60;;;;;;;18.76;17.00;101988.08;1882845;75;22462;-88
2021/10/09 09:53:53;;;;;;;4.80;2.15;;;;;;;18.61;18.34;101977.56;1832025;77;21548;-88
2021/10/09 09:56:20;;;;;;;9.38;2.30;;;;;;;18.88;17.44;101982.25;1865538;76;21957;-84
2021/10/09 09:58:56;;;;;;;4.12;2.37;;;;;;;19.02;16.83;101979.84;1865398;76;20921;-87
2021/10/09 10:01:22;;;;;;;8.63;2.42;;;;;;;18.94;16.44;101979.33;1824930;78;21060;-86
2021/10/09 10:03:49;;;;;;;9.20;2.30;;;;;;;18.69;16.99;101967.92;1825742;78;21119;-88
2021/10/09 10:06:16;;;;;;;9.45;2.40;;;;;;;18.70;17.16;101973.64;1825735;78;21051;-86
2021/10/09 10:08:42;;;;;;;5.67;2.72;;;;;;;18.70;16.73;101966.97;1825013;78;22223;-85
2021/10/09 10:11:10;;;;;;;9.28;2.65;;;;;;;18.92;16.71;101977.66;1824811;78;21019;-87
2021/10/09 10:13:38;;;;;;;12.40;2.77;;;;;;;18.65;16.66;101965.36;1825471;78;21001;-86
2021/10/09 10:16:10;;;;;;;10.50;2.95;;;;;;;18.68;16.30;101971.50;1826918;78;20996;-87
2021/10/09 10:18:49;;;;;;;18.92;3.30;;;;;;;18.73;17.06;101966.87;1818658;77;21059;-91
2021/10/09 10:21:44;;;;;;;4.70;2.30;;;;;;;18.41;16.53;101956.58;1784445;78;21140;-86
2021/10/09 10:24:13;;;;;;;9.65;2.70;;;;;;;18.09;17.20;101948.55;1801572;78;21005;-87
2021/10/09 10:26:39;;;;;;;5.35;2.40;;;;;;;18.05;18.21;101950.06;1803497;79;21029;-89
2021/10/09 10:29:18;;;;;;;8.68;2.33;;;;;;;18.30;17.36;101945.48;1801094;77;21400;-86
2021/10/09 10:32:13;;;;;;;6.85;2.42;;;;;;;18.27;17.56;101946.05;1775360;79;21060;-89
2021/10/09 10:34:42;;;;;;;7.37;2.08;;;;;;;17.94;16.99;101945.14;1780926;79;23019;-86
2021/10/09 10:37:07;;;;;;;4.08;2.00;;;;;;;17.62;16.97;101949.86;1805145;75;20982;-87
2021/10/09 10:39:40;;;;;;;8.80;2.60;;;;;;;17.28;17.47;101950.27;1796741;79;20953;-86
2021/10/09 10:42:28;;;;;;;8.80;2.75;;;;;;;17.52;17.79;101945.82;1777760;79;21092;-87
2021/10/09 10:45:17;;;;;;;5.47;2.77;;;;;;;18.01;18.24;101933.30;1769194;79;20982;-86
2021/10/09 10:50:56;;;;;;;11.85;2.83;;;;;;;18.18;17.13;101938.84;1778253;79;21029;-87
2021/10/09 10:53:27;;;;;;;6.03;2.62;;;;;;;18.15;17.33;101933.64;1768660;81;21076;-85
2021/10/09 10:56:07;;;;;;;10.58;2.98;;;;;;;18.09;17.09;101931.22;1767003;81;21114;-86
2021/10/09 10:58:35;;;;;;;6.58;2.10;;;;;;;18.13;17.07;101931.50;1787669;79;21064;-86
2021/10/09 11:01:22;;;;;;;9.00;2.50;;;;;;;18.07;17.69;101922.41;1772514;80;21317;-85
2021/10/09 11:03:54;;;;;;;7.03;3.35;;;;;;;18.15;17.11;101920.31;1757169;81;21508;-86
2021/10/09 11:06:24;;;;;;;8.80;2.33;;;;;;;18.19;17.32;101927.23;1757372;81;21556;-88
2021/10/09 11:08:52;;;;;;;6.35;2.35;;;;;;;18.31;17.15;101927.67;1757940;81;21006;-86
2021/10/09 11:11:42;;;;;;;9.63;2.12;;;;;;;18.39;17.07;101924.23;1757284;81;21508;-87
2021/10/09 11:14:05;;;;;;;10.95;2.42;;;;;;;18.45;17.66;101917.33;1757187;81;21531;-86
2021/10/09 11:16:32;;;;;;;7.08;2.25;;;;;;;18.60;16.88;101917.99;1730183;81;21029;-87
2021/10/09 11:19:01;;;;;;;6.28;2.62;;;;;;;18.62;18.02;101917.94;1757706;81;21350;-86
2021/10/09 11:21:28;;;;;;;9.43;2.45;;;;;;;18.73;16.78;101917.02;1758141;80;21038;-86
2021/10/09 11:23:57;;;;;;;7.28;2.30;;;;;;;18.64;16.76;101916.94;1783819;77;20915;-86
2021/10/09 11:26:29;;;;;;;8.98;2.58;;;;;;;18.62;17.48;101910.80;1757460;81;21092;-87
2021/10/09 11:29:03;;;;;;;17.33;3.03;;;;;;;18.75;17.24;101907.59;1773637;80;20975;-87
2021/10/09 11:31:29;;;;;;;6.58;2.47;;;;;;;18.86;17.74;101910.26;1775742;78;21024;-85
2021/10/09 11:34:00;;;;;;;12.07;2.47;;;;;;;18.60;16.64;101908.66;1788800;79;21034;-85
2021/10/09 11:36:26;;;;;;;7.47;2.60;;;;;;;18.36;17.12;101902.56;1806919;79;21104;-87
2021/10/09 11:39:07;;;;;;;8.58;2.62;;;;;;;18.11;17.05;101901.84;1801346;79;21057;-87
2021/10/09 11:41:32;;;;;;;10.08;3.37;;;;;;;17.86;17.31;101907.27;1763610;80;21049;-87
2021/10/09 11:44:04;;;;;;;4.25;2.27;;;;;;;17.56;17.46;101903.50;1784731;79;21104;-85
2021/10/09 11:47:19;;;;;;;6.55;2.75;;;;;;;17.39;17.82;101899.67;1781309;80;21511;-85
2021/10/09 11:55:19;;;;;;;4.47;2.72;;;;;;;16.88;18.00;101896.62;1808498;79;21058;-85
2021/10/09 11:57:46;;;;;;;9.50;2.90;;;;;;;16.76;17.70;101891.72;1796440;79;21463;-85
2021/10/09 12:00:34;;;;;;;5.10;2.50;;;;;;;16.64;18.13;101888.16;1798225;79;21063;-86
2021/10/09 12:03:21;;;;;;;4.10;2.42;;;;;;;16.59;19.47;101892.31;1798673;78;21128;-87
2021/10/09 12:05:56;;;;;;;4.97;2.72;;;;;;;16.33;18.65;101886.08;1804842;79;21124;-87
2021/10/09 12:08:26;;;;;;;9.80;2.98;;;;;;;16.33;19.02;101886.52;1802425;77;21025;-90
2021/10/09 12:11:22;;;;;;;8.00;2.70;;;;;;;16.22;19.34;101887.33;1794500;77;26582;-87
2021/10/09 12:14:06;;;;;;;8.60;2.65;;;;;;;16.12;18.84;101887.63;1800516;79;21147;-89
2021/10/09 12:16:50;;;;;;;6.08;2.33;;;;;;;16.08;18.92;101884.68;1777487;80;21057;-88
2021/10/09 12:19:28;;;;;;;9.20;2.80;;;;;;;16.05;19.08;101879.44;1792286;79;21347;-84
2021/10/09 12:22:11;;;;;;;9.25;2.90;;;;;;;15.95;19.32;101879.34;1781939;79;21061;-89
2021/10/09 12:24:52;;;;;;;7.33;2.83;;;;;;;15.89;19.23;101882.17;1775187;79;20994;-87
2021/10/09 12:27:23;;;;;;;;;;;;;;;15.68;19.77;101877.91;1771553;79;21096;-90
2021/10/09 12:30:12;;;;;;;12.88;4.15;;;;;;;15.64;20.08;101878.91;1774789;79;20197;-88
2021/10/09 12:32:46;;;;;;;10.23;3.20;;;;;;;15.59;19.46;101876.86;1764024;80;21120;-89
2021/10/09 12:35:26;;;;;;;13.53;3.05;;;;;;;15.46;20.29;101878.13;1779032;80;21071;-86
2021/10/09 12:38:08;;;;;;;14.47;2.90;;;;;;;15.24;20.31;101873.45;1773737;79;22139;-88
2021/10/09 12:40:41;;;;;;;8.40;3.10;;;;;;;15.22;20.17;101872.62;1793224;79;21151;-86
2021/10/09 12:43:12;;;;;;;16.60;3.27;;;;;;;15.23;21.72;101870.41;1798733;79;21057;-87
2021/10/09 12:45:39;;;;;;;12.13;6.10;;;;;;;15.28;20.31;101863.64;1798369;79;21128;-90
2021/10/09 12:48:06;;;;;;;11.25;4.37;;;;;;;15.30;20.34;101867.98;1797513;79;21002;-87
2021/10/09 12:50:39;;;;;;;16.70;5.62;;;;;;;15.17;19.60;101865.72;1797103;79;21131;-89
2021/10/09 12:53:05;;;;;;;11.12;3.45;;;;;;;14.89;20.05;101869.15;1777526;79;21064;-88
2021/10/09 12:55:33;;;;;;;17.73;6.15;;;;;;;14.73;20.35;101868.69;1793154;79;21051;-89
2021/10/09 12:58:09;;;;;;;9.10;4.25;;;;;;;14.62;20.75;101873.40;1794987;79;21116;-89
2021/10/09 13:00:38;;;;;;;25.15;6.42;;;;;;;14.51;20.45;101870.12;1804325;79;20923;-89
2021/10/09 13:03:06;;;;;;;15.75;4.03;;;;;;;14.39;21.38;101867.33;1775604;78;20939;-88
2021/10/09 13:05:33;;;;;;;8.35;3.20;;;;;;;14.30;20.90;101864.91;1785080;78;20986;-91
2021/10/09 13:08:02;;;;;;;19.37;3.65;;;;;;;14.21;20.88;101856.73;1793957;79;21132;-88
2021/10/09 13:10:32;;;;;;;15.60;3.92;;;;;;;14.17;22.08;101858.60;1800878;79;20966;-89
2021/10/09 13:12:57;;;;;;;11.63;3.10;;;;;;;14.21;21.05;101862.03;1800567;79;21043;-87
2021/10/09 13:15:24;;;;;;;8.85;3.37;;;;;;;14.16;21.07;101855.52;1790277;79;21539;-86
2021/10/09 13:17:50;;;;;;;10.00;3.37;;;;;;;14.04;21.61;101855.36;1772636;79;21060;-90
2021/10/09 13:20:18;;;;;;;11.97;4.17;;;;;;;13.92;21.43;101855.66;1785525;79;21599;-87
2021/10/09 13:22:46;;;;;;;7.65;3.15;;;;;;;13.84;22.18;101848.34;1769620;81;21786;-89
2021/10/09 13:25:13;;;;;;;11.30;3.20;;;;;;;13.79;21.89;101851.55;1785165;79;21040;-87
2021/10/09 13:27:41;;;;;;;10.28;3.77;;;;;;;13.76;22.56;101848.98;1779080;79;21468;-88
2021/10/09 13:30:10;;;;;;;14.63;5.33;;;;;;;13.76;23.00;101847.66;1801213;79;21044;-87
2021/10/09 13:32:38;;;;;;;30.82;11.08;;;;;;;13.76;21.57;101845.02;1800977;79;21079;-89